sensor_id;sensor_type;location;lat;lon;timestamp;temperature;humidity
12847;DHT22;6492;48.128;8.320;2023-12-04T00:01:00;-6.20;29.10
12847;DHT22;6492;48.128;8.320;2023-12-04T00:05:04;-6.20;28.40
12847;DHT22;6492;48.128;8.320;2023-12-04T00:09:05;-6.10;28.20
12847;DHT22;6492;48.128;8.320;2023-12-04T00:13:09;-6.20;28.70
12847;DHT22;6492;48.128;8.320;2023-12-04T00:17:10;-6.10;28.40
12847;DHT22;6492;48.128;8.320;2023-12-04T00:21:12;-6.10;29.60
12847;DHT22;6492;48.128;8.320;2023-12-04T00:25:14;-6.10;31.20
12847;DHT22;6492;48.128;8.320;2023-12-04T00:29:17;-6.10;30.00
12847;DHT22;6492;48.128;8.320;2023-12-04T00:33:19;-6.00;28.20
12847;DHT22;6492;48.128;8.320;2023-12-04T00:37:21;-5.80;25.80
12847;DHT22;6492;48.128;8.320;2023-12-04T00:41:22;-5.80;25.50
12847;DHT22;6492;48.128;8.320;2023-12-04T00:45:26;-5.70;26.70
12847;DHT22;6492;48.128;8.320;2023-12-04T00:49:28;-5.60;28.10
12847;DHT22;6492;48.128;8.320;2023-12-04T00:53:33;-5.70;29.40
12847;DHT22;6492;48.128;8.320;2023-12-04T00:57:34;-5.70;30.20
12847;DHT22;6492;48.128;8.320;2023-12-04T01:01:40;-5.60;30.70
12847;DHT22;6492;48.128;8.320;2023-12-04T01:05:42;-5.60;30.70
12847;DHT22;6492;48.128;8.320;2023-12-04T01:09:44;-5.60;30.30
12847;DHT22;6492;48.128;8.320;2023-12-04T01:13:45;-5.60;28.70
12847;DHT22;6492;48.128;8.320;2023-12-04T01:17:49;-5.60;28.60
12847;DHT22;6492;48.128;8.320;2023-12-04T01:21:50;-5.60;28.90
12847;DHT22;6492;48.128;8.320;2023-12-04T01:25:53;-5.70;29.80
12847;DHT22;6492;48.128;8.320;2023-12-04T01:29:55;-5.70;31.40
12847;DHT22;6492;48.128;8.320;2023-12-04T01:33:58;-5.80;30.70
12847;DHT22;6492;48.128;8.320;2023-12-04T01:38:00;-5.80;30.30
12847;DHT22;6492;48.128;8.320;2023-12-04T01:42:02;-5.90;30.50
12847;DHT22;6492;48.128;8.320;2023-12-04T01:46:05;-5.90;31.50
12847;DHT22;6492;48.128;8.320;2023-12-04T01:50:09;-6.00;31.60
12847;DHT22;6492;48.128;8.320;2023-12-04T01:54:11;-6.10;32.80
12847;DHT22;6492;48.128;8.320;2023-12-04T01:58:14;-6.20;34.00
12847;DHT22;6492;48.128;8.320;2023-12-04T02:02:16;-6.30;34.80
12847;DHT22;6492;48.128;8.320;2023-12-04T02:06:19;-6.30;35.70
12847;DHT22;6492;48.128;8.320;2023-12-04T02:10:21;-6.30;37.30
12847;DHT22;6492;48.128;8.320;2023-12-04T02:14:23;-6.20;37.80
12847;DHT22;6492;48.128;8.320;2023-12-04T02:18:25;-6.10;37.30
12847;DHT22;6492;48.128;8.320;2023-12-04T02:22:28;-6.10;37.70
12847;DHT22;6492;48.128;8.320;2023-12-04T02:26:34;-6.00;38.40
12847;DHT22;6492;48.128;8.320;2023-12-04T02:30:38;-5.90;38.20
12847;DHT22;6492;48.128;8.320;2023-12-04T02:34:41;-5.80;34.00
12847;DHT22;6492;48.128;8.320;2023-12-04T02:38:44;-5.60;32.80
12847;DHT22;6492;48.128;8.320;2023-12-04T02:42:48;-5.40;32.80
12847;DHT22;6492;48.128;8.320;2023-12-04T02:46:50;-5.30;33.20
12847;DHT22;6492;48.128;8.320;2023-12-04T02:50:51;-5.20;30.50
12847;DHT22;6492;48.128;8.320;2023-12-04T02:54:53;-5.10;30.20
12847;DHT22;6492;48.128;8.320;2023-12-04T02:58:56;-5.10;29.80
12847;DHT22;6492;48.128;8.320;2023-12-04T03:02:58;-5.00;26.00
12847;DHT22;6492;48.128;8.320;2023-12-04T03:07:00;-4.90;26.00
12847;DHT22;6492;48.128;8.320;2023-12-04T03:11:02;-4.80;26.40
12847;DHT22;6492;48.128;8.320;2023-12-04T03:15:07;-4.90;27.80
12847;DHT22;6492;48.128;8.320;2023-12-04T03:19:11;-5.00;28.60
12847;DHT22;6492;48.128;8.320;2023-12-04T03:23:12;-5.10;30.20
12847;DHT22;6492;48.128;8.320;2023-12-04T03:27:14;-5.30;31.90
12847;DHT22;6492;48.128;8.320;2023-12-04T03:31:17;-5.20;34.70
12847;DHT22;6492;48.128;8.320;2023-12-04T03:35:19;-5.30;35.30
12847;DHT22;6492;48.128;8.320;2023-12-04T03:39:21;-5.30;35.50
12847;DHT22;6492;48.128;8.320;2023-12-04T03:43:22;-5.40;35.70
12847;DHT22;6492;48.128;8.320;2023-12-04T03:47:25;-5.40;36.30
12847;DHT22;6492;48.128;8.320;2023-12-04T03:51:27;-5.40;37.10
12847;DHT22;6492;48.128;8.320;2023-12-04T03:55:29;-5.40;37.60
12847;DHT22;6492;48.128;8.320;2023-12-04T03:59:31;-5.30;37.10
12847;DHT22;6492;48.128;8.320;2023-12-04T04:03:34;-5.30;37.10
12847;DHT22;6492;48.128;8.320;2023-12-04T04:07:36;-5.30;37.90
12847;DHT22;6492;48.128;8.320;2023-12-04T04:11:37;-5.30;39.30
12847;DHT22;6492;48.128;8.320;2023-12-04T04:15:39;-5.20;39.20
12847;DHT22;6492;48.128;8.320;2023-12-04T04:19:42;-5.30;39.00
12847;DHT22;6492;48.128;8.320;2023-12-04T04:23:44;-5.20;39.30
12847;DHT22;6492;48.128;8.320;2023-12-04T04:27:46;-5.20;39.40
12847;DHT22;6492;48.128;8.320;2023-12-04T04:31:47;-5.20;39.60
12847;DHT22;6492;48.128;8.320;2023-12-04T04:35:51;-5.20;39.10
12847;DHT22;6492;48.128;8.320;2023-12-04T04:39:52;-5.20;38.40
12847;DHT22;6492;48.128;8.320;2023-12-04T04:43:54;-5.30;37.60
12847;DHT22;6492;48.128;8.320;2023-12-04T04:47:56;-5.30;37.60
12847;DHT22;6492;48.128;8.320;2023-12-04T04:51:59;-5.40;37.90
12847;DHT22;6492;48.128;8.320;2023-12-04T04:56:01;-5.40;37.90
12847;DHT22;6492;48.128;8.320;2023-12-04T05:00:03;-5.50;38.00
12847;DHT22;6492;48.128;8.320;2023-12-04T05:04:05;-5.50;38.30
12847;DHT22;6492;48.128;8.320;2023-12-04T05:08:23;-5.60;38.50
12847;DHT22;6492;48.128;8.320;2023-12-04T05:12:25;-5.60;38.80
12847;DHT22;6492;48.128;8.320;2023-12-04T05:16:27;-5.60;39.00
12847;DHT22;6492;48.128;8.320;2023-12-04T05:20:28;-5.70;39.40
12847;DHT22;6492;48.128;8.320;2023-12-04T05:24:31;-5.70;39.70
12847;DHT22;6492;48.128;8.320;2023-12-04T05:28:34;-5.60;40.30
12847;DHT22;6492;48.128;8.320;2023-12-04T05:32:36;-5.60;40.50
12847;DHT22;6492;48.128;8.320;2023-12-04T05:36:46;-5.60;41.20
12847;DHT22;6492;48.128;8.320;2023-12-04T05:40:50;-5.60;42.20
12847;DHT22;6492;48.128;8.320;2023-12-04T05:44:51;-5.50;44.60
12847;DHT22;6492;48.128;8.320;2023-12-04T05:48:55;-5.40;45.50
12847;DHT22;6492;48.128;8.320;2023-12-04T05:52:57;-5.40;46.40
12847;DHT22;6492;48.128;8.320;2023-12-04T05:57:00;-5.20;47.40
12847;DHT22;6492;48.128;8.320;2023-12-04T06:01:02;-5.00;48.10
12847;DHT22;6492;48.128;8.320;2023-12-04T06:05:05;-4.90;48.00
12847;DHT22;6492;48.128;8.320;2023-12-04T06:09:07;-4.90;47.70
12847;DHT22;6492;48.128;8.320;2023-12-04T06:13:12;-4.80;48.20
12847;DHT22;6492;48.128;8.320;2023-12-04T06:17:14;-4.70;50.00
12847;DHT22;6492;48.128;8.320;2023-12-04T06:21:16;-4.50;51.50
12847;DHT22;6492;48.128;8.320;2023-12-04T06:25:19;-4.30;52.20
12847;DHT22;6492;48.128;8.320;2023-12-04T06:29:24;-4.20;52.00
12847;DHT22;6492;48.128;8.320;2023-12-04T06:33:26;-4.20;51.50
12847;DHT22;6492;48.128;8.320;2023-12-04T06:37:28;-4.20;51.30
12847;DHT22;6492;48.128;8.320;2023-12-04T06:41:30;-4.20;51.10
12847;DHT22;6492;48.128;8.320;2023-12-04T06:45:36;-4.20;50.80
12847;DHT22;6492;48.128;8.320;2023-12-04T06:49:38;-4.30;50.70
12847;DHT22;6492;48.128;8.320;2023-12-04T06:53:40;-4.30;51.70
12847;DHT22;6492;48.128;8.320;2023-12-04T06:57:41;-4.20;52.50
12847;DHT22;6492;48.128;8.320;2023-12-04T07:01:45;-4.20;52.70
12847;DHT22;6492;48.128;8.320;2023-12-04T07:05:46;-4.20;52.40
12847;DHT22;6492;48.128;8.320;2023-12-04T07:09:48;-4.20;52.70
12847;DHT22;6492;48.128;8.320;2023-12-04T07:13:50;-4.10;54.40
12847;DHT22;6492;48.128;8.320;2023-12-04T07:17:53;-3.90;54.90
12847;DHT22;6492;48.128;8.320;2023-12-04T07:21:55;-3.90;54.60
12847;DHT22;6492;48.128;8.320;2023-12-04T07:25:57;-3.90;54.10
12847;DHT22;6492;48.128;8.320;2023-12-04T07:29:58;-3.90;54.00
12847;DHT22;6492;48.128;8.320;2023-12-04T07:34:01;-3.80;54.60
12847;DHT22;6492;48.128;8.320;2023-12-04T07:38:03;-3.70;55.40
12847;DHT22;6492;48.128;8.320;2023-12-04T07:42:06;-3.50;56.10
12847;DHT22;6492;48.128;8.320;2023-12-04T07:46:09;-3.40;56.00
12847;DHT22;6492;48.128;8.320;2023-12-04T07:50:13;-3.20;55.60
12847;DHT22;6492;48.128;8.320;2023-12-04T07:54:15;-3.20;54.80
12847;DHT22;6492;48.128;8.320;2023-12-04T07:58:17;-3.20;54.60
12847;DHT22;6492;48.128;8.320;2023-12-04T08:02:19;-3.20;54.40
12847;DHT22;6492;48.128;8.320;2023-12-04T08:06:23;-3.20;54.40
12847;DHT22;6492;48.128;8.320;2023-12-04T08:10:31;-3.10;54.50
12847;DHT22;6492;48.128;8.320;2023-12-04T08:14:33;-3.10;54.30
12847;DHT22;6492;48.128;8.320;2023-12-04T08:18:35;-3.00;54.00
12847;DHT22;6492;48.128;8.320;2023-12-04T08:22:39;-2.90;54.00
12847;DHT22;6492;48.128;8.320;2023-12-04T08:26:40;-2.80;53.80
12847;DHT22;6492;48.128;8.320;2023-12-04T08:30:42;-2.70;53.90
12847;DHT22;6492;48.128;8.320;2023-12-04T08:34:44;-2.60;53.80
12847;DHT22;6492;48.128;8.320;2023-12-04T08:38:47;-2.50;53.80
12847;DHT22;6492;48.128;8.320;2023-12-04T08:42:49;-2.30;53.60
12847;DHT22;6492;48.128;8.320;2023-12-04T08:46:51;-2.20;53.30
12847;DHT22;6492;48.128;8.320;2023-12-04T08:50:52;-2.10;52.50
12847;DHT22;6492;48.128;8.320;2023-12-04T08:55:01;-2.00;51.30
12847;DHT22;6492;48.128;8.320;2023-12-04T08:59:07;-2.00;50.10
12847;DHT22;6492;48.128;8.320;2023-12-04T09:03:10;-2.00;49.90
12847;DHT22;6492;48.128;8.320;2023-12-04T09:07:12;-1.90;49.70
12847;DHT22;6492;48.128;8.320;2023-12-04T09:11:27;-1.80;45.40
12847;DHT22;6492;48.128;8.320;2023-12-04T09:15:29;-1.50;40.00
12847;DHT22;6492;48.128;8.320;2023-12-04T09:19:31;-1.10;36.60
12847;DHT22;6492;48.128;8.320;2023-12-04T09:23:37;-0.80;37.40
12847;DHT22;6492;48.128;8.320;2023-12-04T09:27:49;-0.60;38.30
12847;DHT22;6492;48.128;8.320;2023-12-04T09:31:51;-0.40;38.80
12847;DHT22;6492;48.128;8.320;2023-12-04T09:35:53;-0.30;39.20
12847;DHT22;6492;48.128;8.320;2023-12-04T09:39:55;-0.20;39.50
12847;DHT22;6492;48.128;8.320;2023-12-04T09:43:58;-0.10;40.10
12847;DHT22;6492;48.128;8.320;2023-12-04T09:48:00;0.00;40.60
12847;DHT22;6492;48.128;8.320;2023-12-04T09:52:02;0.10;40.60
12847;DHT22;6492;48.128;8.320;2023-12-04T09:56:11;0.30;40.10
12847;DHT22;6492;48.128;8.320;2023-12-04T10:00:15;0.40;39.40
12847;DHT22;6492;48.128;8.320;2023-12-04T10:04:17;0.50;39.10
12847;DHT22;6492;48.128;8.320;2023-12-04T10:08:18;0.60;38.20
12847;DHT22;6492;48.128;8.320;2023-12-04T10:12:27;0.60;37.80
12847;DHT22;6492;48.128;8.320;2023-12-04T10:16:36;0.70;38.20
12847;DHT22;6492;48.128;8.320;2023-12-04T10:20:52;0.70;38.30
12847;DHT22;6492;48.128;8.320;2023-12-04T10:24:58;0.80;38.10
12847;DHT22;6492;48.128;8.320;2023-12-04T10:29:02;0.90;37.90
12847;DHT22;6492;48.128;8.320;2023-12-04T10:33:15;1.00;36.50
12847;DHT22;6492;48.128;8.320;2023-12-04T10:37:23;1.20;33.90
12847;DHT22;6492;48.128;8.320;2023-12-04T10:41:26;1.50;31.40
12847;DHT22;6492;48.128;8.320;2023-12-04T10:45:27;2.00;29.60
12847;DHT22;6492;48.128;8.320;2023-12-04T10:49:31;2.30;28.00
12847;DHT22;6492;48.128;8.320;2023-12-04T10:53:33;2.50;25.60
12847;DHT22;6492;48.128;8.320;2023-12-04T10:57:44;2.60;24.40
12847;DHT22;6492;48.128;8.320;2023-12-04T11:02:01;2.60;24.40
12847;DHT22;6492;48.128;8.320;2023-12-04T11:06:08;2.40;25.10
12847;DHT22;6492;48.128;8.320;2023-12-04T11:10:29;2.40;26.40
12847;DHT22;6492;48.128;8.320;2023-12-04T11:14:53;2.50;25.50
12847;DHT22;6492;48.128;8.320;2023-12-04T11:19:01;2.50;24.90
12847;DHT22;6492;48.128;8.320;2023-12-04T11:23:06;2.60;25.40
12847;DHT22;6492;48.128;8.320;2023-12-04T11:27:09;2.80;25.80
12847;DHT22;6492;48.128;8.320;2023-12-04T11:31:13;2.90;24.20
12847;DHT22;6492;48.128;8.320;2023-12-04T11:35:16;2.90;23.30
12847;DHT22;6492;48.128;8.320;2023-12-04T11:39:22;2.90;23.00
12847;DHT22;6492;48.128;8.320;2023-12-04T11:43:24;2.70;25.20
12847;DHT22;6492;48.128;8.320;2023-12-04T11:47:49;2.60;25.80
12847;DHT22;6492;48.128;8.320;2023-12-04T11:51:52;2.40;26.30
12847;DHT22;6492;48.128;8.320;2023-12-04T11:56:09;2.30;28.30
12847;DHT22;6492;48.128;8.320;2023-12-04T12:00:30;2.20;30.10
12847;DHT22;6492;48.128;8.320;2023-12-04T12:04:33;2.10;31.30
12847;DHT22;6492;48.128;8.320;2023-12-04T12:08:36;2.00;33.10
12847;DHT22;6492;48.128;8.320;2023-12-04T12:12:48;1.90;34.60
12847;DHT22;6492;48.128;8.320;2023-12-04T12:16:59;1.80;36.00
12847;DHT22;6492;48.128;8.320;2023-12-04T12:21:04;1.80;37.10
12847;DHT22;6492;48.128;8.320;2023-12-04T12:25:08;1.70;38.00
12847;DHT22;6492;48.128;8.320;2023-12-04T12:29:11;1.70;38.70
12847;DHT22;6492;48.128;8.320;2023-12-04T12:33:13;1.50;40.20
12847;DHT22;6492;48.128;8.320;2023-12-04T12:37:15;1.40;42.90
12847;DHT22;6492;48.128;8.320;2023-12-04T12:41:30;1.40;43.00
12847;DHT22;6492;48.128;8.320;2023-12-04T12:45:40;1.30;44.50
12847;DHT22;6492;48.128;8.320;2023-12-04T12:49:43;1.30;40.90
12847;DHT22;6492;48.128;8.320;2023-12-04T12:53:45;1.10;41.60
12847;DHT22;6492;48.128;8.320;2023-12-04T12:57:47;1.10;43.40
12847;DHT22;6492;48.128;8.320;2023-12-04T13:01:50;1.20;43.70
12847;DHT22;6492;48.128;8.320;2023-12-04T13:05:58;1.20;43.40
12847;DHT22;6492;48.128;8.320;2023-12-04T13:10:00;1.40;44.10
12847;DHT22;6492;48.128;8.320;2023-12-04T13:14:03;1.40;41.80
12847;DHT22;6492;48.128;8.320;2023-12-04T13:18:06;1.30;41.50
12847;DHT22;6492;48.128;8.320;2023-12-04T13:22:08;1.20;42.10
12847;DHT22;6492;48.128;8.320;2023-12-04T13:26:10;1.10;42.30
12847;DHT22;6492;48.128;8.320;2023-12-04T13:30:12;1.10;43.50
12847;DHT22;6492;48.128;8.320;2023-12-04T13:34:15;0.90;43.80
12847;DHT22;6492;48.128;8.320;2023-12-04T13:38:17;0.90;45.00
12847;DHT22;6492;48.128;8.320;2023-12-04T13:42:19;0.80;46.00
12847;DHT22;6492;48.128;8.320;2023-12-04T13:46:39;0.80;47.60
12847;DHT22;6492;48.128;8.320;2023-12-04T13:50:42;0.80;49.50
12847;DHT22;6492;48.128;8.320;2023-12-04T13:54:44;0.90;49.30
12847;DHT22;6492;48.128;8.320;2023-12-04T13:58:48;0.80;49.20
12847;DHT22;6492;48.128;8.320;2023-12-04T14:02:56;0.80;49.70
12847;DHT22;6492;48.128;8.320;2023-12-04T14:07:05;0.90;49.80
12847;DHT22;6492;48.128;8.320;2023-12-04T14:11:08;0.90;49.80
12847;DHT22;6492;48.128;8.320;2023-12-04T14:15:15;0.90;49.80
12847;DHT22;6492;48.128;8.320;2023-12-04T14:19:17;0.90;49.40
12847;DHT22;6492;48.128;8.320;2023-12-04T14:23:24;0.90;49.30
12847;DHT22;6492;48.128;8.320;2023-12-04T14:27:34;0.90;49.30
12847;DHT22;6492;48.128;8.320;2023-12-04T14:31:36;0.90;49.40
12847;DHT22;6492;48.128;8.320;2023-12-04T14:35:38;0.90;48.70
12847;DHT22;6492;48.128;8.320;2023-12-04T14:39:41;0.80;48.60
12847;DHT22;6492;48.128;8.320;2023-12-04T14:43:42;0.80;48.90
12847;DHT22;6492;48.128;8.320;2023-12-04T14:47:44;0.80;49.00
12847;DHT22;6492;48.128;8.320;2023-12-04T14:51:48;0.80;48.70
12847;DHT22;6492;48.128;8.320;2023-12-04T14:55:51;0.70;49.00
12847;DHT22;6492;48.128;8.320;2023-12-04T15:00:13;0.60;49.70
12847;DHT22;6492;48.128;8.320;2023-12-04T15:04:33;0.50;50.40
12847;DHT22;6492;48.128;8.320;2023-12-04T15:09:07;0.30;51.00
12847;DHT22;6492;48.128;8.320;2023-12-04T15:13:27;0.30;52.00
12847;DHT22;6492;48.128;8.320;2023-12-04T15:17:55;0.20;52.70
12847;DHT22;6492;48.128;8.320;2023-12-04T15:22:17;0.20;53.80
12847;DHT22;6492;48.128;8.320;2023-12-04T15:26:26;0.10;54.60
12847;DHT22;6492;48.128;8.320;2023-12-04T15:30:29;0.10;55.40
12847;DHT22;6492;48.128;8.320;2023-12-04T15:34:31;0.00;55.90
12847;DHT22;6492;48.128;8.320;2023-12-04T15:38:35;0.00;56.70
12847;DHT22;6492;48.128;8.320;2023-12-04T15:42:37;0.00;57.30
12847;DHT22;6492;48.128;8.320;2023-12-04T15:46:40;0.00;58.70
12847;DHT22;6492;48.128;8.320;2023-12-04T15:50:42;0.00;58.40
12847;DHT22;6492;48.128;8.320;2023-12-04T15:54:44;-0.10;58.90
12847;DHT22;6492;48.128;8.320;2023-12-04T15:58:45;-0.10;59.20
12847;DHT22;6492;48.128;8.320;2023-12-04T16:02:52;-0.10;59.40
12847;DHT22;6492;48.128;8.320;2023-12-04T16:06:54;-0.10;59.40
12847;DHT22;6492;48.128;8.320;2023-12-04T16:10:58;-0.20;59.40
12847;DHT22;6492;48.128;8.320;2023-12-04T16:15:00;-0.20;59.00
12847;DHT22;6492;48.128;8.320;2023-12-04T16:19:05;-0.20;58.60
12847;DHT22;6492;48.128;8.320;2023-12-04T16:23:07;-0.20;58.20
12847;DHT22;6492;48.128;8.320;2023-12-04T16:27:23;-0.20;58.10
12847;DHT22;6492;48.128;8.320;2023-12-04T16:31:25;-0.20;58.00
12847;DHT22;6492;48.128;8.320;2023-12-04T16:35:45;-0.20;57.90
12847;DHT22;6492;48.128;8.320;2023-12-04T16:39:47;-0.20;57.70
12847;DHT22;6492;48.128;8.320;2023-12-04T16:43:50;-0.20;57.70
12847;DHT22;6492;48.128;8.320;2023-12-04T16:47:58;-0.20;57.80
12847;DHT22;6492;48.128;8.320;2023-12-04T16:52:01;-0.20;57.60
12847;DHT22;6492;48.128;8.320;2023-12-04T16:56:10;-0.30;57.60
12847;DHT22;6492;48.128;8.320;2023-12-04T17:00:13;-0.40;57.20
12847;DHT22;6492;48.128;8.320;2023-12-04T17:04:15;-0.40;57.20
12847;DHT22;6492;48.128;8.320;2023-12-04T17:08:18;-0.50;57.50
12847;DHT22;6492;48.128;8.320;2023-12-04T17:12:26;-0.50;57.90
12847;DHT22;6492;48.128;8.320;2023-12-04T17:16:28;-0.50;58.00
12847;DHT22;6492;48.128;8.320;2023-12-04T17:20:30;-0.60;57.90
12847;DHT22;6492;48.128;8.320;2023-12-04T17:24:33;-0.60;57.90
12847;DHT22;6492;48.128;8.320;2023-12-04T17:28:35;-0.60;57.80
12847;DHT22;6492;48.128;8.320;2023-12-04T17:32:43;-0.60;58.10
12847;DHT22;6492;48.128;8.320;2023-12-04T17:36:45;-0.60;58.20
12847;DHT22;6492;48.128;8.320;2023-12-04T17:40:51;-0.60;58.10
12847;DHT22;6492;48.128;8.320;2023-12-04T17:44:54;-0.60;57.40
12847;DHT22;6492;48.128;8.320;2023-12-04T17:49:04;-0.60;56.80
12847;DHT22;6492;48.128;8.320;2023-12-04T17:53:06;-0.70;56.60
12847;DHT22;6492;48.128;8.320;2023-12-04T17:57:09;-0.70;56.30
12847;DHT22;6492;48.128;8.320;2023-12-04T18:01:11;-0.80;56.50
12847;DHT22;6492;48.128;8.320;2023-12-04T18:05:13;-0.80;56.40
12847;DHT22;6492;48.128;8.320;2023-12-04T18:09:15;-0.90;55.20
12847;DHT22;6492;48.128;8.320;2023-12-04T18:13:20;-1.00;54.20
12847;DHT22;6492;48.128;8.320;2023-12-04T18:17:23;-1.20;54.10
12847;DHT22;6492;48.128;8.320;2023-12-04T18:21:32;-1.30;54.60
12847;DHT22;6492;48.128;8.320;2023-12-04T18:25:34;-1.40;55.60
12847;DHT22;6492;48.128;8.320;2023-12-04T18:29:44;-1.40;56.00
12847;DHT22;6492;48.128;8.320;2023-12-04T18:33:46;-1.40;56.80
12847;DHT22;6492;48.128;8.320;2023-12-04T18:37:54;-1.40;57.70
12847;DHT22;6492;48.128;8.320;2023-12-04T18:41:56;-1.40;58.50
12847;DHT22;6492;48.128;8.320;2023-12-04T18:46:00;-1.30;59.30
12847;DHT22;6492;48.128;8.320;2023-12-04T18:50:02;-1.30;59.60
12847;DHT22;6492;48.128;8.320;2023-12-04T18:54:07;-1.20;59.60
12847;DHT22;6492;48.128;8.320;2023-12-04T18:58:09;-1.20;59.40
12847;DHT22;6492;48.128;8.320;2023-12-04T19:02:17;-1.20;59.20
12847;DHT22;6492;48.128;8.320;2023-12-04T19:06:20;-1.20;59.40
12847;DHT22;6492;48.128;8.320;2023-12-04T19:10:22;-1.10;59.70
12847;DHT22;6492;48.128;8.320;2023-12-04T19:14:26;-1.10;59.80
12847;DHT22;6492;48.128;8.320;2023-12-04T19:18:32;-1.10;59.30
12847;DHT22;6492;48.128;8.320;2023-12-04T19:22:34;-1.00;59.00
12847;DHT22;6492;48.128;8.320;2023-12-04T19:26:38;-0.50;59.20
12847;DHT22;6492;48.128;8.320;2023-12-04T19:30:40;-1.00;58.90
12847;DHT22;6492;48.128;8.320;2023-12-04T19:34:44;-1.00;59.30
12847;DHT22;6492;48.128;8.320;2023-12-04T19:38:45;-0.90;59.40
12847;DHT22;6492;48.128;8.320;2023-12-04T19:42:49;-0.80;59.50
12847;DHT22;6492;48.128;8.320;2023-12-04T19:46:51;-0.80;59.90
12847;DHT22;6492;48.128;8.320;2023-12-04T19:50:57;-0.70;60.20
12847;DHT22;6492;48.128;8.320;2023-12-04T19:54:59;-0.70;60.30
12847;DHT22;6492;48.128;8.320;2023-12-04T19:59:00;-0.60;60.70
12847;DHT22;6492;48.128;8.320;2023-12-04T20:03:03;-0.60;60.80
12847;DHT22;6492;48.128;8.320;2023-12-04T20:07:07;-0.50;61.20
12847;DHT22;6492;48.128;8.320;2023-12-04T20:11:09;-0.40;62.00
12847;DHT22;6492;48.128;8.320;2023-12-04T20:15:11;-0.30;62.20
12847;DHT22;6492;48.128;8.320;2023-12-04T20:19:12;-0.20;62.20
12847;DHT22;6492;48.128;8.320;2023-12-04T20:23:28;-0.20;62.00
12847;DHT22;6492;48.128;8.320;2023-12-04T20:27:32;-0.10;62.20
12847;DHT22;6492;48.128;8.320;2023-12-04T20:31:41;-0.20;62.80
12847;DHT22;6492;48.128;8.320;2023-12-04T20:35:43;-0.10;63.00
12847;DHT22;6492;48.128;8.320;2023-12-04T20:39:46;-0.10;63.30
12847;DHT22;6492;48.128;8.320;2023-12-04T20:43:48;0.00;63.60
12847;DHT22;6492;48.128;8.320;2023-12-04T20:47:50;0.00;63.50
12847;DHT22;6492;48.128;8.320;2023-12-04T20:51:54;-0.10;63.70
12847;DHT22;6492;48.128;8.320;2023-12-04T20:55:58;-0.10;63.60
12847;DHT22;6492;48.128;8.320;2023-12-04T20:59:59;-0.10;63.30
12847;DHT22;6492;48.128;8.320;2023-12-04T21:04:01;-0.10;63.10
12847;DHT22;6492;48.128;8.320;2023-12-04T21:08:04;-0.20;62.90
12847;DHT22;6492;48.128;8.320;2023-12-04T21:12:08;-0.20;62.90
12847;DHT22;6492;48.128;8.320;2023-12-04T21:16:10;-0.30;62.90
12847;DHT22;6492;48.128;8.320;2023-12-04T21:20:12;-0.30;63.10
12847;DHT22;6492;48.128;8.320;2023-12-04T21:24:16;-0.40;62.90
12847;DHT22;6492;48.128;8.320;2023-12-04T21:28:22;-0.30;63.00
12847;DHT22;6492;48.128;8.320;2023-12-04T21:32:24;-0.30;63.40
12847;DHT22;6492;48.128;8.320;2023-12-04T21:36:26;-0.40;63.10
12847;DHT22;6492;48.128;8.320;2023-12-04T21:40:28;-0.40;62.90
12847;DHT22;6492;48.128;8.320;2023-12-04T21:44:31;-0.40;62.70
12847;DHT22;6492;48.128;8.320;2023-12-04T21:48:33;-0.40;62.60
12847;DHT22;6492;48.128;8.320;2023-12-04T21:52:40;-0.40;62.70
12847;DHT22;6492;48.128;8.320;2023-12-04T21:56:42;-0.40;62.80
12847;DHT22;6492;48.128;8.320;2023-12-04T22:00:46;-0.40;63.00
12847;DHT22;6492;48.128;8.320;2023-12-04T22:04:48;-0.40;63.30
12847;DHT22;6492;48.128;8.320;2023-12-04T22:08:49;-0.40;63.70
12847;DHT22;6492;48.128;8.320;2023-12-04T22:12:51;-0.40;64.00
12847;DHT22;6492;48.128;8.320;2023-12-04T22:16:57;-0.40;64.40
12847;DHT22;6492;48.128;8.320;2023-12-04T22:20:58;-0.30;64.70
12847;DHT22;6492;48.128;8.320;2023-12-04T22:25:00;-0.30;65.00
12847;DHT22;6492;48.128;8.320;2023-12-04T22:29:02;-0.30;65.20
12847;DHT22;6492;48.128;8.320;2023-12-04T22:33:05;-0.30;65.50
12847;DHT22;6492;48.128;8.320;2023-12-04T22:37:08;-0.30;65.80
12847;DHT22;6492;48.128;8.320;2023-12-04T22:41:10;-0.30;65.90
12847;DHT22;6492;48.128;8.320;2023-12-04T22:45:12;-0.30;66.10
12847;DHT22;6492;48.128;8.320;2023-12-04T22:49:15;-0.30;66.10
12847;DHT22;6492;48.128;8.320;2023-12-04T22:53:18;-0.40;65.90
12847;DHT22;6492;48.128;8.320;2023-12-04T22:57:20;-0.50;65.70
12847;DHT22;6492;48.128;8.320;2023-12-04T23:01:23;-0.50;65.70
12847;DHT22;6492;48.128;8.320;2023-12-04T23:05:27;-0.50;65.60
12847;DHT22;6492;48.128;8.320;2023-12-04T23:09:28;-0.60;65.40
12847;DHT22;6492;48.128;8.320;2023-12-04T23:13:30;-0.60;65.50
12847;DHT22;6492;48.128;8.320;2023-12-04T23:17:32;-0.60;65.80
12847;DHT22;6492;48.128;8.320;2023-12-04T23:21:36;-0.60;65.90
12847;DHT22;6492;48.128;8.320;2023-12-04T23:25:38;-0.60;66.00
12847;DHT22;6492;48.128;8.320;2023-12-04T23:29:40;-0.60;66.20
12847;DHT22;6492;48.128;8.320;2023-12-04T23:33:42;-0.50;66.50
12847;DHT22;6492;48.128;8.320;2023-12-04T23:37:45;-0.50;66.70
12847;DHT22;6492;48.128;8.320;2023-12-04T23:41:46;-0.50;66.90
12847;DHT22;6492;48.128;8.320;2023-12-04T23:45:48;-0.40;66.90
12847;DHT22;6492;48.128;8.320;2023-12-04T23:49:50;-0.40;67.10
12847;DHT22;6492;48.128;8.320;2023-12-04T23:53:53;-0.40;67.10
12847;DHT22;6492;48.128;8.320;2023-12-04T23:57:55;-0.40;67.20
